createdAt,value
2018-04-18T00:00:52.073Z,50.00
2018-04-18T00:01:52.079Z,52.80
2018-04-18T00:02:52.077Z,55.10
2018-04-18T00:03:52.078Z,50.60
2018-04-18T00:04:52.120Z,56.70
2018-04-18T00:05:52.075Z,53.00
2018-04-18T00:06:52.074Z,53.20
2018-04-18T00:07:52.071Z,53.20
2018-04-18T00:08:52.071Z,54.10
2018-04-18T00:09:52.118Z,56.70
2018-04-18T00:10:52.071Z,53.30
2018-04-18T00:11:52.067Z,56.70
2018-04-18T00:12:52.075Z,55.80
2018-04-18T00:13:52.068Z,47.80
2018-04-18T00:14:52.113Z,50.60
2018-04-18T00:15:52.079Z,46.90
2018-04-18T00:16:52.062Z,48.10
2018-04-18T00:17:52.066Z,58.80
2018-04-18T00:18:52.144Z,65.40
2018-04-18T00:19:52.117Z,62.90
2018-04-18T00:20:52.060Z,50.30
2018-04-18T00:21:52.060Z,48.50
2018-04-18T00:22:52.062Z,53.50
2018-04-18T00:23:52.059Z,58.30
2018-04-18T00:24:52.111Z,58.60
2018-04-18T00:25:52.057Z,55.30
2018-04-18T00:26:52.174Z,55.80
2018-04-18T00:27:52.873Z,52.60
2018-04-18T00:28:52.053Z,58.90
2018-04-18T00:29:52.098Z,52.70
2018-04-18T00:30:52.049Z,53.60
2018-04-18T00:31:52.109Z,57.10
2018-04-18T00:32:52.049Z,60.20
2018-04-18T00:33:52.050Z,57.30
2018-04-18T00:35:03.062Z,56.20
2018-04-18T00:35:52.047Z,59.60
2018-04-18T00:36:52.051Z,62.10
2018-04-18T00:37:52.048Z,56.80
2018-04-18T00:38:52.049Z,62.30
2018-04-18T00:39:52.083Z,60.70
2018-04-18T00:40:52.042Z,64.30
2018-04-18T00:41:52.384Z,61.50
2018-04-18T00:42:52.038Z,61.40
2018-04-18T00:43:52.040Z,55.90
2018-04-18T00:44:52.199Z,53.80
2018-04-18T00:45:52.035Z,61.00
2018-04-18T00:46:52.036Z,64.60
2018-04-18T00:47:52.035Z,60.90
2018-04-18T00:48:52.028Z,72.20
2018-04-18T00:49:52.032Z,59.20
2018-04-18T00:50:52.077Z,67.10
2018-04-18T00:51:52.030Z,63.70
2018-04-18T00:52:52.028Z,65.20
2018-04-18T00:53:52.026Z,65.80
2018-04-18T00:54:52.027Z,71.70
2018-04-18T00:55:52.086Z,64.40
2018-04-18T00:56:52.024Z,83.20
2018-04-18T00:57:52.025Z,71.60
2018-04-18T00:58:53.038Z,67.40
2018-04-18T00:59:52.021Z,63.50
2018-04-18T01:00:52.092Z,65.30
2018-04-18T01:01:52.020Z,68.90
2018-04-18T01:02:52.017Z,72.00
2018-04-18T01:03:52.011Z,66.60
2018-04-18T01:04:52.020Z,60.60
2018-04-18T01:05:52.072Z,67.70
2018-04-18T01:06:52.013Z,67.50
2018-04-18T01:07:52.005Z,72.00
2018-04-18T01:08:52.010Z,71.40
2018-04-18T01:09:52.005Z,68.90
2018-04-18T01:10:52.004Z,73.80
2018-04-18T01:11:52.046Z,67.00
2018-04-18T01:12:51.995Z,67.80
2018-04-18T01:13:51.998Z,62.60
2018-04-18T01:14:52.006Z,72.40
2018-04-18T01:15:52.059Z,72.40
2018-04-18T01:16:51.998Z,82.40
2018-04-18T01:17:51.995Z,72.60
2018-04-18T01:18:52.001Z,68.00
2018-04-18T01:19:51.986Z,67.90
2018-04-18T01:20:51.992Z,68.70
2018-04-18T01:21:52.047Z,75.90
2018-04-18T01:22:51.983Z,72.40
2018-04-18T01:23:51.987Z,72.90
2018-04-18T01:24:51.990Z,73.10
2018-04-18T01:25:51.988Z,72.60
2018-04-18T01:26:52.075Z,79.90
2018-04-18T01:27:51.984Z,70.00
2018-04-18T01:28:51.979Z,72.40
2018-04-18T01:29:51.973Z,70.00
2018-04-18T01:30:51.979Z,67.80
2018-04-18T01:31:53.711Z,65.60
2018-04-18T01:32:51.967Z,77.00
2018-04-18T01:33:51.973Z,80.40
2018-04-18T01:34:51.972Z,76.80
2018-04-18T01:35:51.969Z,86.20
2018-04-18T01:36:51.965Z,84.20
2018-04-18T01:37:52.089Z,75.10
2018-04-18T01:38:51.992Z,77.30
2018-04-18T01:39:51.967Z,75.50
2018-04-18T01:40:51.966Z,67.20
2018-04-18T01:41:51.960Z,70.20
2018-04-18T01:42:52.022Z,73.00
2018-04-18T01:43:51.955Z,85.80
2018-04-18T01:44:52.343Z,75.10
2018-04-18T01:45:51.952Z,90.50
2018-04-18T01:47:13.576Z,82.90
2018-04-18T01:47:51.948Z,84.00
2018-04-18T01:48:51.948Z,81.90
2018-04-18T01:49:51.949Z,91.70
2018-04-18T01:50:52.879Z,89.90
2018-04-18T01:51:51.985Z,83.50
2018-04-18T01:52:51.943Z,84.20
2018-04-18T01:53:51.940Z,76.20
2018-04-18T01:54:51.931Z,83.50
2018-04-18T01:55:51.935Z,88.50
2018-04-18T01:56:51.982Z,79.10
2018-04-18T01:57:51.937Z,80.70
2018-04-18T01:58:52.032Z,86.50
2018-04-18T01:59:51.931Z,101.70
2018-04-18T02:00:51.925Z,86.90
2018-04-18T02:01:52.087Z,85.20
2018-04-18T02:02:51.929Z,92.20
2018-04-18T02:03:51.915Z,82.40
2018-04-18T02:04:51.921Z,81.60
2018-04-18T02:05:51.923Z,74.40
2018-04-18T02:06:51.917Z,79.20
2018-04-18T02:07:51.963Z,74.90
2018-04-18T02:08:51.917Z,79.60
2018-04-18T02:09:51.904Z,81.20
2018-04-18T02:10:51.907Z,79.60
2018-04-18T02:11:51.951Z,73.30
2018-04-18T02:12:51.906Z,64.90
2018-04-18T02:13:51.907Z,61.40
2018-04-18T02:14:51.903Z,63.60
2018-04-18T02:15:51.903Z,63.40
2018-04-18T02:16:51.943Z,76.50
2018-04-18T02:17:51.898Z,75.30
2018-04-18T02:18:51.892Z,80.70
2018-04-18T02:19:51.895Z,77.30
2018-04-18T02:20:51.893Z,76.30
2018-04-18T02:21:51.934Z,79.30
2018-04-18T02:22:51.889Z,76.00
2018-04-18T02:23:52.716Z,82.40
2018-04-18T02:24:51.887Z,83.40
2018-04-18T02:25:51.880Z,82.90
2018-04-18T02:26:51.923Z,82.80
2018-04-18T02:27:51.881Z,91.10
2018-04-18T02:28:51.872Z,76.60
2018-04-18T02:29:51.878Z,70.70
2018-04-18T02:30:51.880Z,70.80
2018-04-18T02:31:51.927Z,76.20
2018-04-18T02:32:51.871Z,80.10
2018-04-18T02:33:51.864Z,83.60
2018-04-18T02:34:51.944Z,85.80
2018-04-18T02:35:51.864Z,92.20
2018-04-18T02:37:02.559Z,92.70
2018-04-18T02:37:51.860Z,86.30
2018-04-18T02:38:51.852Z,80.60
2018-04-18T02:39:51.861Z,102.20
2018-04-18T02:40:51.857Z,87.50
2018-04-18T02:41:52.296Z,84.00
2018-04-18T02:42:51.856Z,93.10
2018-04-18T02:43:51.848Z,97.20
2018-04-18T02:44:51.841Z,109.90
2018-04-18T02:45:51.848Z,105.10
2018-04-18T02:46:51.907Z,111.30
2018-04-18T02:47:51.840Z,113.50
2018-04-18T02:48:51.844Z,101.90
2018-04-18T02:49:51.840Z,102.00
2018-04-18T02:50:51.836Z,108.20
2018-04-18T02:51:51.887Z,100.00
2018-04-18T02:52:51.836Z,94.50
2018-04-18T02:53:51.827Z,110.70
2018-04-18T02:54:51.830Z,120.00
2018-04-18T02:55:51.827Z,109.70
2018-04-18T02:56:51.871Z,112.60
2018-04-18T02:57:51.825Z,106.10
2018-04-18T02:58:51.820Z,115.50
2018-04-18T02:59:51.827Z,121.00
2018-04-18T03:00:51.873Z,112.80
2018-04-18T03:01:51.815Z,105.70
2018-04-18T03:02:51.811Z,114.60
2018-04-18T03:03:51.809Z,123.60
2018-04-18T03:04:51.807Z,120.40
2018-04-18T03:05:51.808Z,135.60
2018-04-18T03:06:51.853Z,138.00
2018-04-18T03:07:51.800Z,144.30
2018-04-18T03:08:51.801Z,139.10
2018-04-18T03:09:51.797Z,148.50
2018-04-18T03:10:51.797Z,139.40
2018-04-18T03:11:51.835Z,138.10
2018-04-18T03:12:51.790Z,154.00
2018-04-18T03:13:51.784Z,158.30
2018-04-18T03:14:51.791Z,164.10
2018-04-18T03:15:51.785Z,156.40
2018-04-18T03:16:51.833Z,150.00
2018-04-18T03:17:51.781Z,151.30
2018-04-18T03:18:51.781Z,150.30
2018-04-18T03:19:51.786Z,152.30
2018-04-18T03:20:51.777Z,153.60
2018-04-18T03:22:02.735Z,164.80
2018-04-18T03:22:51.796Z,150.90
2018-04-18T03:23:51.798Z,157.30
2018-04-18T03:24:51.849Z,161.70
2018-04-18T03:25:51.791Z,162.30
2018-04-18T03:26:51.786Z,164.50
2018-04-18T03:27:51.822Z,173.00
2018-04-18T03:28:51.778Z,166.80
2018-04-18T03:29:51.781Z,159.50
2018-04-18T03:30:51.779Z,161.90
2018-04-18T03:31:51.779Z,156.50
2018-04-18T03:32:51.889Z,152.70
2018-04-18T03:33:51.771Z,144.80
2018-04-18T03:34:52.424Z,145.80
2018-04-18T03:35:51.817Z,148.50
2018-04-18T03:36:51.764Z,145.70
2018-04-18T03:37:52.555Z,156.20
2018-04-18T03:38:51.763Z,150.30
2018-04-18T03:39:51.992Z,152.60
2018-04-18T03:40:51.787Z,152.10
2018-04-18T03:41:51.767Z,138.50
2018-04-18T03:42:51.806Z,130.00
2018-04-18T03:44:03.331Z,135.50
2018-04-18T03:44:51.751Z,128.40
2018-04-18T03:45:51.743Z,147.20
2018-04-18T03:46:51.773Z,142.90
2018-04-18T03:47:51.744Z,137.20
2018-04-18T03:48:51.791Z,150.20
2018-04-18T03:49:51.749Z,147.80
2018-04-18T03:50:51.742Z,150.70
2018-04-18T03:51:51.735Z,145.30
2018-04-18T03:52:59.568Z,128.90
2018-04-18T03:53:51.727Z,121.40
2018-04-18T03:54:51.723Z,108.50
2018-04-18T03:55:51.723Z,100.70
2018-04-18T03:56:55.902Z,112.20
2018-04-18T03:57:53.582Z,114.90
2018-04-18T03:58:51.716Z,112.70
2018-04-18T03:59:51.721Z,120.90
2018-04-18T04:00:51.719Z,128.70
2018-04-18T04:01:51.714Z,116.50
2018-04-18T04:02:51.774Z,123.20
2018-04-18T04:03:51.708Z,121.80
2018-04-18T04:04:51.712Z,118.40
2018-04-18T04:05:51.706Z,118.30
2018-04-18T04:06:51.710Z,125.90
2018-04-18T04:07:51.880Z,124.60
2018-04-18T04:08:51.704Z,137.80
2018-04-18T04:09:51.699Z,128.50
2018-04-18T04:10:51.696Z,117.10
2018-04-18T04:11:51.695Z,123.40
2018-04-18T04:12:51.688Z,118.90
2018-04-18T04:13:51.748Z,104.50
2018-04-18T04:14:51.689Z,95.60
2018-04-18T04:15:51.684Z,97.80
2018-04-18T04:16:51.680Z,106.10
2018-04-18T04:17:51.681Z,110.40
2018-04-18T04:18:51.677Z,100.50
2018-04-18T04:19:51.753Z,107.40
2018-04-18T04:20:51.677Z,120.40
2018-04-18T04:21:51.672Z,107.00
2018-04-18T04:22:51.673Z,125.90
2018-04-18T04:23:51.725Z,147.00
2018-04-18T04:24:51.729Z,148.30
2018-04-18T04:25:51.665Z,128.30
2018-04-18T04:26:51.661Z,117.70
2018-04-18T04:27:51.657Z,120.20
2018-04-18T04:28:51.655Z,130.20
2018-04-18T04:29:51.697Z,147.20
2018-04-18T04:30:51.652Z,122.60
2018-04-18T04:31:51.655Z,138.00
2018-04-18T04:32:51.648Z,128.20
2018-04-18T04:33:51.643Z,115.70
2018-04-18T04:34:51.852Z,131.30
2018-04-18T04:35:51.645Z,123.30
2018-04-18T04:36:51.632Z,112.20
2018-04-18T04:37:51.646Z,94.90
2018-04-18T04:38:51.643Z,118.70
2018-04-18T04:39:51.635Z,109.90
2018-04-18T04:40:51.678Z,135.90
2018-04-18T04:41:51.632Z,135.40
2018-04-18T04:42:51.626Z,133.20
2018-04-18T04:43:51.631Z,135.70
2018-04-18T04:44:51.685Z,120.40
2018-04-18T04:45:51.926Z,116.60
2018-04-18T04:46:51.619Z,105.30
2018-04-18T04:47:53.784Z,111.00
2018-04-18T04:48:51.612Z,99.60
2018-04-18T04:49:59.548Z,119.30
2018-04-18T04:50:51.666Z,105.00
2018-04-18T04:51:51.610Z,100.60
2018-04-18T04:52:51.603Z,112.10
2018-04-18T04:53:51.611Z,120.90
2018-04-18T04:54:51.604Z,121.70
2018-04-18T04:55:52.600Z,138.30
2018-04-18T04:56:51.595Z,135.00
2018-04-18T04:57:51.596Z,139.20
2018-04-18T04:58:51.597Z,141.60
2018-04-18T04:59:51.596Z,132.80
2018-04-18T05:00:51.645Z,129.00
2018-04-18T05:01:51.588Z,135.40
2018-04-18T05:02:51.606Z,119.50
2018-04-18T05:03:51.585Z,105.50
2018-04-18T05:04:51.633Z,102.90
2018-04-18T05:05:51.583Z,102.40
2018-04-18T05:06:51.583Z,105.70
2018-04-18T05:07:51.582Z,110.30
2018-04-18T05:08:51.573Z,102.10
2018-04-18T05:09:51.617Z,104.70
2018-04-18T05:10:51.601Z,103.40
2018-04-18T05:11:51.576Z,92.60
2018-04-18T05:12:51.579Z,89.60
2018-04-18T05:13:51.572Z,99.60
2018-04-18T05:14:51.629Z,121.90
2018-04-18T05:15:51.571Z,110.90
2018-04-18T05:16:51.569Z,170.80
2018-04-18T05:17:51.570Z,222.30
2018-04-18T05:18:51.569Z,141.70
2018-04-18T05:19:51.619Z,117.30
2018-04-18T05:20:51.563Z,101.90
2018-04-18T05:21:51.558Z,65.40
2018-04-18T05:22:51.569Z,71.90
2018-04-18T05:23:51.560Z,77.50
2018-04-18T05:24:51.598Z,85.10
2018-04-18T05:25:51.554Z,78.50
2018-04-18T05:26:51.558Z,49.70
2018-04-18T05:27:51.554Z,52.80
2018-04-18T05:28:51.552Z,61.20
2018-04-18T05:29:51.606Z,61.80
2018-04-18T05:30:51.629Z,61.90
2018-04-18T05:31:52.515Z,59.90
2018-04-18T05:32:52.540Z,60.80
2018-04-18T05:33:51.550Z,51.20
2018-04-18T05:34:52.215Z,44.50
2018-04-18T05:35:51.552Z,42.80
2018-04-18T05:36:51.557Z,47.00
2018-04-18T05:37:51.554Z,46.30
2018-04-18T05:38:51.579Z,47.30
2018-04-18T05:39:51.604Z,50.70
2018-04-18T05:40:51.555Z,54.50
2018-04-18T05:41:51.556Z,50.00
2018-04-18T05:42:51.547Z,51.00
2018-04-18T05:43:51.552Z,48.10
2018-04-18T05:44:51.596Z,48.80
2018-04-18T05:45:51.552Z,48.10
2018-04-18T05:46:51.556Z,47.70
2018-04-18T05:47:51.552Z,47.00
2018-04-18T05:48:51.555Z,45.80
2018-04-18T05:49:51.600Z,43.70
2018-04-18T05:50:51.648Z,47.40
2018-04-18T05:51:51.553Z,48.70
2018-04-18T05:52:51.564Z,46.20
2018-04-18T05:53:51.561Z,45.50
2018-04-18T05:54:51.623Z,46.50
2018-04-18T05:55:51.560Z,40.60
2018-04-18T05:56:51.566Z,41.40
2018-04-18T05:57:51.564Z,41.20
2018-04-18T05:58:51.573Z,39.30
2018-04-18T05:59:51.870Z,35.10
2018-04-18T06:00:51.571Z,38.00
2018-04-18T06:01:51.569Z,37.50
2018-04-18T06:02:51.583Z,36.90
2018-04-18T06:03:51.973Z,39.70
2018-04-18T06:04:51.612Z,36.80
2018-04-18T06:06:06.110Z,37.10
2018-04-18T06:06:51.583Z,40.60
2018-04-18T06:07:51.577Z,38.10
2018-04-18T06:08:51.582Z,39.20
2018-04-18T06:09:51.588Z,40.00
2018-04-18T06:10:55.304Z,36.90
2018-04-18T06:11:51.586Z,39.40
2018-04-18T06:12:51.592Z,37.60
2018-04-18T06:13:51.593Z,37.70
2018-04-18T06:14:51.595Z,35.50
2018-04-18T06:15:51.643Z,35.90
2018-04-18T06:16:51.602Z,32.70
2018-04-18T06:17:51.627Z,33.80
2018-04-18T06:18:51.610Z,35.90
2018-04-18T06:19:51.831Z,38.50
2018-04-18T06:20:51.611Z,33.10
2018-04-18T06:21:51.617Z,34.10
2018-04-18T06:22:51.838Z,34.00
2018-04-18T06:23:51.623Z,32.10
2018-04-18T06:24:52.063Z,32.00
2018-04-18T06:25:51.630Z,33.30
2018-04-18T06:26:51.637Z,29.80
2018-04-18T06:27:51.652Z,31.60
2018-04-18T06:28:51.646Z,28.40
2018-04-18T06:29:52.548Z,32.00
2018-04-18T06:30:51.687Z,32.80
2018-04-18T06:31:51.686Z,30.90
2018-04-18T06:32:51.661Z,31.90
2018-04-18T06:33:51.667Z,27.90
2018-04-18T06:34:51.662Z,31.70
2018-04-18T06:35:51.723Z,28.80
2018-04-18T06:36:51.676Z,29.40
2018-04-18T06:37:51.764Z,30.60
2018-04-18T06:38:51.679Z,27.50
2018-04-18T06:39:51.689Z,29.00
2018-04-18T06:40:51.728Z,30.30
2018-04-18T06:41:51.697Z,31.90
2018-04-18T06:42:51.706Z,31.10
2018-04-18T06:43:51.705Z,31.20
2018-04-18T06:44:51.710Z,31.10
2018-04-18T06:45:51.770Z,31.80
2018-04-18T06:46:51.725Z,29.70
2018-04-18T06:47:53.414Z,30.30
2018-04-18T06:48:51.727Z,31.50
2018-04-18T06:49:51.838Z,28.10
2018-04-18T06:50:59.605Z,31.00
2018-04-18T06:51:51.749Z,31.40
2018-04-18T06:52:51.745Z,30.90
2018-04-18T06:53:51.758Z,30.30
2018-04-18T06:54:51.759Z,32.20
2018-04-18T06:56:02.621Z,30.00
2018-04-18T06:56:51.769Z,28.10
2018-04-18T06:57:51.781Z,31.10
2018-04-18T06:58:51.788Z,30.30
2018-04-18T06:59:51.791Z,31.80
2018-04-18T07:00:55.115Z,30.00
2018-04-18T07:01:51.805Z,29.10
2018-04-18T07:02:51.818Z,28.70
2018-04-18T07:03:51.813Z,30.10
2018-04-18T07:04:51.826Z,31.00
2018-04-18T07:05:52.029Z,31.80
2018-04-18T07:06:51.833Z,30.10
2018-04-18T07:07:51.854Z,32.80
2018-04-18T07:08:51.847Z,29.60
2018-04-18T07:09:51.856Z,28.00
2018-04-18T07:10:51.863Z,28.80
2018-04-18T07:11:51.916Z,28.20
2018-04-18T07:12:51.879Z,27.00
2018-04-18T07:13:51.882Z,27.90
2018-04-18T07:14:51.891Z,26.50
2018-04-18T07:15:52.046Z,27.10
2018-04-18T07:16:52.640Z,28.60
2018-04-18T07:17:51.912Z,25.00
2018-04-18T07:18:51.924Z,27.50
2018-04-18T07:19:51.941Z,25.00
2018-04-18T07:20:51.940Z,26.00
2018-04-18T07:21:52.016Z,27.00
2018-04-18T07:22:51.949Z,27.80
2018-04-18T07:23:51.958Z,25.00
2018-04-18T07:24:51.980Z,25.20
2018-04-18T07:25:51.980Z,25.40
2018-04-18T07:26:52.766Z,24.80
2018-04-18T07:27:51.992Z,25.80
2018-04-18T07:28:52.005Z,25.30
2018-04-18T07:29:52.010Z,23.80
2018-04-18T07:30:52.017Z,23.60
2018-04-18T07:31:52.025Z,23.50
2018-04-18T07:32:52.091Z,24.60
2018-04-18T07:33:52.049Z,26.20
2018-04-18T07:34:52.063Z,25.10
2018-04-18T07:35:52.069Z,25.30
2018-04-18T07:36:52.076Z,23.70
2018-04-18T07:37:52.161Z,25.80
2018-04-18T07:38:52.098Z,25.40
2018-04-18T07:39:52.105Z,26.40
2018-04-18T07:40:52.122Z,27.00
2018-04-18T07:41:52.134Z,26.50
2018-04-18T07:42:55.622Z,25.60
2018-04-18T07:43:52.146Z,25.60
2018-04-18T07:44:52.160Z,26.50
2018-04-18T07:45:52.166Z,26.20
2018-04-18T07:46:52.195Z,26.20
2018-04-18T07:47:52.229Z,26.90
2018-04-18T07:48:52.207Z,26.60
2018-04-18T07:49:52.219Z,25.50
2018-04-18T07:50:52.231Z,26.10
2018-04-18T07:51:52.231Z,27.90
2018-04-18T07:52:52.299Z,24.70
2018-04-18T07:53:52.266Z,25.50
2018-04-18T07:54:52.327Z,24.30
2018-04-18T07:55:52.353Z,24.80
2018-04-18T07:56:52.288Z,28.60
2018-04-18T07:57:52.655Z,26.10
2018-04-18T07:58:52.317Z,24.20
2018-04-18T07:59:52.335Z,26.00
2018-04-18T08:00:52.342Z,28.00
2018-04-18T08:01:52.622Z,26.50
2018-04-18T08:02:55.625Z,24.50
2018-04-18T08:03:52.380Z,23.50
2018-04-18T08:04:52.390Z,24.10
2018-04-18T08:05:52.400Z,26.00
2018-04-18T08:06:52.491Z,24.50
2018-04-18T08:07:52.424Z,26.10
2018-04-18T08:08:52.432Z,24.80
2018-04-18T08:09:52.563Z,25.10
2018-04-18T08:10:52.478Z,26.20
2018-04-18T08:11:52.473Z,24.30
2018-04-18T08:12:52.543Z,23.10
2018-04-18T08:13:52.507Z,25.10
2018-04-18T08:14:52.521Z,22.60
2018-04-18T08:15:52.533Z,23.40
2018-04-18T08:16:52.541Z,23.10
2018-04-18T08:17:52.604Z,22.90
2018-04-18T08:18:52.573Z,23.90
2018-04-18T08:19:52.594Z,22.60
2018-04-18T08:20:52.593Z,24.30
2018-04-18T08:21:52.623Z,22.00
2018-04-18T08:22:52.675Z,21.90
2018-04-18T08:23:53.031Z,22.00
2018-04-18T08:24:52.648Z,20.90
2018-04-18T08:25:52.661Z,22.00
2018-04-18T08:26:52.674Z,22.60
2018-04-18T08:28:03.660Z,21.70
2018-04-18T08:28:52.702Z,23.00
2018-04-18T08:29:52.787Z,22.10
2018-04-18T08:30:52.745Z,21.50
2018-04-18T08:31:52.760Z,23.10
2018-04-18T08:32:52.776Z,21.40
2018-04-18T08:33:53.639Z,21.80
2018-04-18T08:34:52.796Z,19.40
2018-04-18T08:35:52.802Z,17.50
2018-04-18T08:36:52.832Z,19.40
2018-04-18T08:37:52.848Z,19.30
2018-04-18T08:38:52.940Z,20.30
2018-04-18T08:39:52.865Z,20.10
2018-04-18T08:40:52.891Z,19.30
2018-04-18T08:41:52.892Z,18.10
2018-04-18T08:42:52.916Z,19.80
2018-04-18T08:43:52.997Z,17.30
2018-04-18T08:44:52.955Z,17.10
2018-04-18T08:45:52.966Z,16.40
2018-04-18T08:46:52.991Z,15.20
2018-04-18T08:47:52.991Z,15.40
2018-04-18T08:48:53.064Z,17.20
2018-04-18T08:49:53.020Z,15.30
2018-04-18T08:50:53.047Z,15.10
2018-04-18T08:51:53.074Z,14.80
2018-04-18T08:52:53.090Z,16.10
2018-04-18T08:53:53.141Z,15.60
2018-04-18T08:54:53.112Z,14.30
2018-04-18T08:55:53.129Z,14.10
2018-04-18T08:56:53.146Z,14.70
2018-04-18T08:57:54.245Z,14.10
2018-04-18T08:58:53.172Z,14.10
2018-04-18T08:59:53.190Z,13.60
2018-04-18T09:00:53.213Z,13.20
2018-04-18T09:01:53.231Z,12.60
2018-04-18T09:02:53.313Z,12.20
2018-04-18T09:03:53.257Z,12.60
2018-04-18T09:04:53.293Z,10.50
2018-04-18T09:05:53.305Z,10.60
2018-04-18T09:06:53.313Z,11.70
2018-04-18T09:07:53.413Z,10.90
2018-04-18T09:08:53.346Z,10.70
2018-04-18T09:09:53.375Z,11.00
2018-04-18T09:10:53.381Z,17.40
2018-04-18T09:11:53.417Z,10.80
2018-04-18T09:13:11.709Z,13.20
2018-04-18T09:13:53.438Z,11.50
2018-04-18T09:14:53.456Z,12.30
2018-04-18T09:15:53.467Z,12.30
2018-04-18T09:16:53.493Z,10.60
2018-04-18T09:17:53.674Z,11.80
2018-04-18T09:18:53.532Z,12.90
2018-04-18T09:19:53.542Z,12.90
2018-04-18T09:20:53.570Z,13.60
2018-04-18T09:21:53.580Z,11.60
2018-04-18T09:22:53.603Z,11.40
2018-04-18T09:23:53.666Z,12.60
2018-04-18T09:24:53.639Z,11.00
2018-04-18T09:25:53.656Z,10.80
2018-04-18T09:26:53.692Z,11.90
2018-04-18T09:27:53.696Z,11.40
2018-04-18T09:29:08.937Z,16.90
2018-04-18T09:29:53.729Z,11.20
2018-04-18T09:30:53.743Z,10.60
2018-04-18T09:31:53.772Z,9.80
2018-04-18T09:32:53.797Z,9.20
2018-04-18T09:33:53.865Z,8.70
2018-04-18T09:34:53.820Z,8.60
2018-04-18T09:35:53.848Z,6.90
2018-04-18T09:36:53.870Z,9.20
2018-04-18T09:37:53.939Z,6.90
2018-04-18T09:38:53.908Z,6.90
2018-04-18T09:39:53.928Z,8.30
2018-04-18T09:40:53.935Z,7.90
2018-04-18T09:41:53.957Z,7.50
2018-04-18T09:42:54.036Z,7.30
2018-04-18T09:43:54.023Z,8.60
2018-04-18T09:44:54.034Z,8.20
2018-04-18T09:45:54.045Z,7.10
2018-04-18T09:46:54.204Z,6.70
2018-04-18T09:47:54.152Z,7.80
2018-04-18T09:48:54.106Z,7.80
2018-04-18T09:49:55.163Z,7.60
2018-04-18T09:50:54.154Z,7.10
2018-04-18T09:51:54.202Z,6.90
2018-04-18T09:52:54.249Z,7.30
2018-04-18T09:53:54.215Z,7.40
2018-04-18T09:54:54.238Z,8.00
2018-04-18T09:55:54.260Z,6.80
2018-04-18T09:56:54.285Z,6.20
2018-04-18T09:58:02.187Z,5.30
2018-04-18T09:58:54.320Z,6.10
2018-04-18T09:59:54.335Z,7.90
2018-04-18T10:00:54.372Z,5.80
2018-04-18T10:01:54.396Z,6.10
2018-04-18T10:02:54.419Z,5.90
2018-04-18T10:03:54.491Z,3.90
2018-04-18T10:04:54.446Z,4.10
2018-04-18T10:05:54.471Z,5.50
2018-04-18T10:06:54.500Z,4.40
2018-04-18T10:07:54.505Z,5.30
2018-04-18T10:08:54.584Z,6.30
2018-04-18T10:09:54.564Z,5.90
2018-04-18T10:10:54.575Z,5.40
2018-04-18T10:11:55.194Z,6.00
2018-04-18T10:12:54.616Z,5.20
2018-04-18T10:13:54.680Z,4.10
2018-04-18T10:14:54.658Z,4.00
2018-04-18T10:15:54.681Z,6.20
2018-04-18T10:16:54.705Z,12.60
2018-04-18T10:17:54.730Z,5.10
2018-04-18T10:19:05.686Z,4.90
2018-04-18T10:19:54.766Z,6.60
2018-04-18T10:20:54.798Z,7.30
2018-04-18T10:21:54.790Z,5.80
2018-04-18T10:22:55.637Z,6.50
2018-04-18T10:25:26.541Z,4.60
2018-04-18T10:26:26.563Z,4.50
2018-04-18T10:27:26.577Z,5.00
2018-04-18T10:28:34.651Z,5.00
2018-04-18T10:29:26.627Z,5.40
2018-04-18T10:30:26.639Z,4.50
2018-04-18T10:31:26.673Z,6.90
2018-04-18T10:32:26.689Z,4.90
2018-04-18T10:33:26.712Z,5.20
2018-04-18T10:34:26.776Z,5.90
2018-04-18T10:35:26.759Z,4.60
2018-04-18T10:36:26.771Z,5.70
2018-04-18T10:37:27.413Z,4.70
2018-04-18T10:38:26.815Z,5.50
2018-04-18T10:39:26.919Z,4.50
2018-04-18T10:40:26.860Z,4.50
2018-04-18T10:41:26.885Z,5.10
2018-04-18T10:42:26.918Z,5.70
2018-04-18T10:43:26.967Z,5.60
2018-04-18T10:44:34.649Z,6.20
2018-04-18T10:45:27.083Z,4.60
2018-04-18T10:46:26.994Z,5.40
2018-04-18T10:47:27.019Z,4.30
2018-04-18T10:48:27.037Z,6.40
2018-04-18T10:49:27.054Z,6.40
2018-04-18T10:50:27.141Z,5.30
2018-04-18T10:51:27.107Z,4.10
2018-04-18T10:52:27.127Z,3.80
2018-04-18T10:53:27.142Z,4.60
2018-04-18T10:54:27.163Z,5.70
2018-04-18T10:55:38.145Z,4.60
2018-04-18T10:56:27.204Z,5.10
2018-04-18T10:57:27.238Z,6.20
2018-04-18T10:58:27.253Z,3.90
2018-04-18T10:59:27.276Z,4.80
2018-04-18T11:00:27.447Z,5.30
2018-04-18T11:01:27.316Z,4.70
2018-04-18T11:02:27.342Z,4.20
2018-04-18T11:03:27.365Z,4.50
2018-04-18T11:04:27.387Z,4.40
2018-04-18T11:05:27.585Z,6.10
2018-04-18T11:06:29.310Z,4.40
2018-04-18T11:07:27.450Z,4.50
2018-04-18T11:08:27.478Z,4.10
2018-04-18T11:09:27.495Z,4.10
2018-04-18T11:10:27.523Z,4.50
2018-04-18T11:11:27.688Z,4.20
2018-04-18T11:12:27.583Z,4.10
2018-04-18T11:13:27.587Z,4.30
2018-04-18T11:14:28.634Z,5.60
2018-04-18T11:15:27.960Z,4.50
2018-04-18T11:16:33.239Z,3.70
2018-04-18T11:17:27.676Z,5.40
2018-04-18T11:18:27.762Z,4.30
2018-04-18T11:19:27.717Z,4.00
2018-04-18T11:20:27.817Z,4.40
2018-04-18T11:21:27.792Z,4.20
2018-04-18T11:22:42.315Z,5.50
2018-04-18T11:23:27.845Z,4.90
2018-04-18T11:24:27.846Z,6.20
2018-04-18T11:25:27.926Z,4.60
2018-04-18T11:26:27.971Z,4.70
2018-04-18T11:27:28.960Z,5.10
2018-04-18T11:28:27.919Z,4.80
2018-04-18T11:29:27.934Z,4.70
2018-04-18T11:30:27.951Z,4.70
2018-04-18T11:31:27.966Z,5.30
2018-04-18T11:33:03.164Z,5.20
2018-04-18T11:33:28.011Z,4.80
2018-04-18T11:34:28.027Z,4.70
2018-04-18T11:35:28.052Z,5.20
2018-04-18T11:36:31.171Z,5.10
2018-04-18T11:37:28.093Z,4.80
2018-04-18T11:38:28.125Z,7.30
2018-04-18T11:39:28.832Z,5.60
2018-04-18T11:40:28.152Z,4.90
2018-04-18T11:42:07.675Z,4.80
2018-04-18T11:42:28.196Z,4.30
2018-04-18T11:43:28.816Z,5.30
2018-04-18T11:44:28.713Z,4.70
2018-04-18T11:45:28.379Z,4.60
2018-04-18T11:46:28.275Z,4.20
2018-04-18T11:49:02.083Z,4.60
2018-04-18T11:50:00.526Z,4.20
2018-04-18T11:51:00.546Z,4.70
2018-04-18T11:52:00.635Z,5.30
2018-04-18T11:53:00.591Z,4.00
2018-04-18T11:54:00.612Z,4.00
2018-04-18T11:55:00.638Z,5.80
2018-04-18T11:56:00.695Z,4.30
2018-04-18T11:57:00.855Z,4.00
2018-04-18T11:58:00.691Z,5.20
2018-04-18T11:59:00.730Z,5.20
2018-04-18T12:00:00.735Z,4.60
2018-04-18T12:01:00.773Z,4.30
2018-04-18T12:02:00.798Z,5.20
2018-04-18T12:03:04.124Z,5.20
2018-04-18T12:04:00.825Z,5.60
2018-04-18T12:05:00.845Z,4.40
2018-04-18T12:06:00.867Z,3.70
2018-04-18T12:07:00.897Z,3.80
2018-04-18T12:08:36.148Z,5.40
2018-04-18T12:09:00.941Z,4.20
2018-04-18T12:10:00.985Z,4.10
2018-04-18T12:11:01.020Z,4.30
2018-04-18T12:12:01.020Z,5.80
2018-04-18T12:13:01.174Z,5.60
2018-04-18T12:14:01.068Z,7.30
2018-04-18T12:15:02.046Z,5.70
2018-04-18T12:16:01.263Z,6.00
2018-04-18T12:17:01.191Z,5.80
2018-04-18T12:19:32.936Z,5.30
2018-04-18T12:20:32.812Z,6.10
2018-04-18T12:21:32.873Z,5.60
2018-04-18T12:22:32.909Z,4.50
2018-04-18T12:23:32.937Z,5.00
2018-04-18T12:24:32.895Z,4.70
2018-04-18T12:25:32.947Z,5.20
2018-04-18T12:26:32.913Z,5.30
2018-04-18T12:27:32.939Z,4.80
2018-04-18T12:28:33.006Z,5.00
2018-04-18T12:29:32.992Z,4.30
2018-04-18T12:30:33.073Z,5.30
2018-04-18T12:31:33.024Z,4.80
2018-04-18T12:32:33.080Z,5.10
2018-04-18T12:33:33.234Z,5.00
2018-04-18T12:34:33.087Z,4.70
2018-04-18T12:35:33.110Z,5.40
2018-04-18T12:36:33.130Z,4.20
2018-04-18T12:37:33.179Z,4.00
2018-04-18T12:38:34.915Z,5.30
2018-04-18T12:39:33.253Z,3.70
2018-04-18T12:40:33.213Z,4.40
2018-04-18T12:41:33.238Z,4.70
2018-04-18T12:42:33.265Z,4.40
2018-04-18T12:43:33.332Z,4.40
2018-04-18T12:44:33.306Z,4.50
2018-04-18T12:45:33.316Z,5.60
2018-04-18T12:46:33.341Z,4.60
2018-04-18T12:47:33.379Z,5.50
2018-04-18T12:48:41.425Z,5.70
2018-04-18T12:49:33.413Z,4.80
2018-04-18T12:50:33.433Z,5.00
2018-04-18T12:51:33.452Z,5.90
2018-04-18T12:52:33.469Z,5.50
2018-04-18T12:53:45.129Z,5.50
2018-04-18T12:54:33.526Z,7.00
2018-04-18T12:55:33.534Z,4.80
2018-04-18T12:56:33.565Z,5.20
2018-04-18T12:57:33.590Z,5.90
2018-04-18T12:58:38.982Z,5.50
2018-04-18T12:59:33.667Z,5.30